CMP756 SVMC-MPTO
Flight info
| Callsign | CMP756 |
|---|---|
| Flight time | N/A |
| Altitude | 36000 |
| Route | ASIBA1 GAVIS A552 UTKIV UQ125 BAQ UL220 CTG UL335 BOGAL |
| Aircraft | B38M/M-SDE1FGHILORVWXY/HB1 |
Departure
| Time | N/A |
|---|---|
| Airport | La Chinita International Airport (SVMC) |
Arrival
| Time | 2026-05-03 20:30 |
|---|---|
| Airport | Tocumen International Airport (MPTO) |
| Time | Latitude | Longitude | Altitude | Speed | Heading |
|---|---|---|---|---|---|
| 2026-05-03 20:15 | 9.26514 | -78.62870 | 20183 ft | 363 kts | 268° |
| 2026-05-03 20:15 | 9.26483 | -78.65422 | 19807 ft | 362 kts | 267° |
| 2026-05-03 20:15 | 9.26451 | -78.67966 | 19449 ft | 361 kts | 268° |
| 2026-05-03 20:15 | 9.26420 | -78.70509 | 19066 ft | 360 kts | 268° |
| 2026-05-03 20:16 | 9.26388 | -78.73041 | 18704 ft | 359 kts | 268° |
| 2026-05-03 20:16 | 9.26357 | -78.75564 | 18332 ft | 358 kts | 268° |
| 2026-05-03 20:16 | 9.26325 | -78.78081 | 17931 ft | 357 kts | 268° |
| 2026-05-03 20:16 | 9.26294 | -78.80578 | 17584 ft | 353 kts | 268° |
| 2026-05-03 20:17 | 9.26262 | -78.83053 | 17229 ft | 351 kts | 268° |
| 2026-05-03 20:17 | 9.26231 | -78.85515 | 16880 ft | 348 kts | 268° |
| 2026-05-03 20:17 | 9.26199 | -78.87958 | 16523 ft | 346 kts | 268° |
| 2026-05-03 20:17 | 9.26168 | -78.90388 | 16164 ft | 345 kts | 268° |
| 2026-05-03 20:18 | 9.26136 | -78.92809 | 15809 ft | 343 kts | 268° |
| 2026-05-03 20:18 | 9.26105 | -78.95220 | 15450 ft | 341 kts | 268° |
| 2026-05-03 20:18 | 9.26073 | -78.97617 | 15096 ft | 340 kts | 268° |
| 2026-05-03 20:18 | 9.26042 | -79.00006 | 14751 ft | 339 kts | 268° |
| 2026-05-03 20:19 | 9.26011 | -79.02359 | 14402 ft | 338 kts | 268° |
| 2026-05-03 20:19 | 9.25979 | -79.04733 | 14053 ft | 337 kts | 268° |
| 2026-05-03 20:19 | 9.25947 | -79.07133 | 13706 ft | 337 kts | 268° |
| 2026-05-03 20:19 | 9.25916 | -79.09510 | 13274 ft | 337 kts | 268° |
| 2026-05-03 20:20 | 9.25775 | -79.11866 | 12886 ft | 334 kts | 256° |
| 2026-05-03 20:20 | 9.24861 | -79.13958 | 12491 ft | 329 kts | 231° |
| 2026-05-03 20:20 | 9.23185 | -79.15492 | 12154 ft | 323 kts | 211° |
| 2026-05-03 20:20 | 9.21315 | -79.16724 | 11831 ft | 320 kts | 212° |
| 2026-05-03 20:21 | 9.19466 | -79.17970 | 11481 ft | 318 kts | 212° |
| 2026-05-03 20:21 | 9.17624 | -79.19206 | 11124 ft | 317 kts | 212° |
| 2026-05-03 20:21 | 9.15785 | -79.20438 | 10765 ft | 317 kts | 212° |
| 2026-05-03 20:21 | 9.13951 | -79.21666 | 10397 ft | 316 kts | 212° |
| 2026-05-03 20:22 | 9.12118 | -79.22892 | 10043 ft | 315 kts | 212° |
| 2026-05-03 20:22 | 9.10287 | -79.24118 | 9681 ft | 315 kts | 212° |
| 2026-05-03 20:22 | 9.08460 | -79.25341 | 9281 ft | 315 kts | 212° |
| 2026-05-03 20:22 | 9.06638 | -79.26559 | 8908 ft | 313 kts | 212° |
| 2026-05-03 20:23 | 9.04827 | -79.27771 | 8565 ft | 312 kts | 212° |
| 2026-05-03 20:23 | 9.03023 | -79.28977 | 8216 ft | 310 kts | 213° |
| 2026-05-03 20:23 | 9.01168 | -79.30074 | 7845 ft | 309 kts | 207° |
| 2026-05-03 20:23 | 8.99273 | -79.31093 | 7487 ft | 307 kts | 208° |
| 2026-05-03 20:24 | 8.97401 | -79.32112 | 7181 ft | 304 kts | 208° |
| 2026-05-03 20:24 | 8.95548 | -79.33129 | 6862 ft | 302 kts | 208° |
| 2026-05-03 20:24 | 8.93737 | -79.34127 | 6545 ft | 299 kts | 209° |
| 2026-05-03 20:24 | 8.91921 | -79.35129 | 6254 ft | 296 kts | 208° |
| 2026-05-03 20:25 | 8.90118 | -79.36124 | 5938 ft | 295 kts | 208° |
| 2026-05-03 20:25 | 8.88338 | -79.37108 | 5596 ft | 287 kts | 208° |
| 2026-05-03 20:25 | 8.86635 | -79.38083 | 5397 ft | 274 kts | 214° |
| 2026-05-03 20:25 | 8.85471 | -79.39504 | 5180 ft | 263 kts | 251° |
| 2026-05-03 20:26 | 8.85258 | -79.41310 | 4899 ft | 261 kts | 279° |
| 2026-05-03 20:26 | 8.86001 | -79.42941 | 4468 ft | 259 kts | 334° |
| 2026-05-03 20:26 | 8.87597 | -79.42436 | 3822 ft | 262 kts | 40° |
| 2026-05-03 20:26 | 8.89112 | -79.41518 | 3685 ft | 249 kts | 20° |
| 2026-05-03 20:27 | 8.90802 | -79.41369 | 3542 ft | 243 kts | 346° |
| 2026-05-03 20:27 | 8.92428 | -79.41653 | 3265 ft | 241 kts | 1° |
| 2026-05-03 20:27 | 8.94141 | -79.41918 | 3098 ft | 245 kts | 341° |
| 2026-05-03 20:27 | 8.95699 | -79.42433 | 3067 ft | 225 kts | 343° |
| 2026-05-03 20:28 | 8.97166 | -79.42754 | 2746 ft | 214 kts | 358° |
| 2026-05-03 20:28 | 8.98645 | -79.42456 | 2152 ft | 218 kts | 19° |
| 2026-05-03 20:28 | 9.00023 | -79.41909 | 1603 ft | 208 kts | 23° |
| 2026-05-03 20:28 | 9.01267 | -79.41292 | 1139 ft | 191 kts | 28° |
| 2026-05-03 20:29 | 9.02358 | -79.40648 | 782 ft | 172 kts | 31° |
| 2026-05-03 20:29 | 9.03329 | -79.40032 | 449 ft | 155 kts | 30° |
| 2026-05-03 20:29 | 9.04223 | -79.39551 | 195 ft | 137 kts | 25° |
| 2026-05-03 20:29 | 9.05060 | -79.39089 | 36 ft | 135 kts | 27° |
| 2026-05-03 20:30 | 9.05690 | -79.38737 | 34 ft | 76 kts | 29° |
| 2026-05-03 20:30 | 9.06044 | -79.38536 | 34 ft | 41 kts | 29° |
| 2026-05-03 20:30 | 9.06118 | -79.38494 | 33 ft | 11 kts | 29° |
| 2026-05-03 20:30 | 9.06246 | -79.38429 | 34 ft | 28 kts | 20° |
| 2026-05-03 20:31 | 9.06453 | -79.38378 | 32 ft | 26 kts | 1° |
| 2026-05-03 20:31 | 9.06584 | -79.38377 | 32 ft | 17 kts | 356° |
| 2026-05-03 20:31 | 9.06659 | -79.38425 | 32 ft | 9 kts | 306° |
| 2026-05-03 20:31 | 9.06720 | -79.38427 | 32 ft | 11 kts | 26° |
| 2026-05-03 20:32 | 9.06795 | -79.38390 | 32 ft | 13 kts | 25° |
| 2026-05-03 20:32 | 9.06870 | -79.38382 | 32 ft | 9 kts | 326° |
| 2026-05-03 20:32 | 9.06910 | -79.38444 | 33 ft | 12 kts | 303° |
| 2026-05-03 20:32 | 9.06970 | -79.38479 | 33 ft | 5 kts | 329° |
| 2026-05-03 20:33 | 9.06999 | -79.38504 | 33 ft | 6 kts | 315° |
| 2026-05-03 20:33 | 9.07006 | -79.38511 | 33 ft | 0 kts | 316° |